Aurora, CO (80017)

9:53 AM MST on November 26, 2014 (GMT -0700)
Stone Ridge Park | Change Station
CLOSE
Current Station
Personal Weather Station
Location: Aurora, CO
Elevation: 5597 ft
Nearby Weather Stations

Elev 5597 ft 39.69 °N, 104.77 °W | Updated 1 minute ago

Scattered Clouds
Scattered Clouds
36.5 °F
Feels Like 34 °F
N
3.2
Wind Variable Wind from SE

Today
High -- | Low -- °F
--% Chance of Precip.
Yesterday
High -- | Low -- °F
Precip. -- in
6:55 AM 4:36 PM
Waxing Crescent, 21% visible
Pressure 30.23 in
Visibility 10.0 miles
Clouds Few 3000 ft
Few 11000 ft
Scattered Clouds 22000 ft
Windchill 34 °F
Dew Point 24 °F
Humidity 61%
Rainfall 0.00 in
Snow Depth Not available.
UV 1 out of 12
Pollen .10 out of 12
Air Quality Not available.
Flu Activity Not available.
METAR KBKF 261558Z 13006KT 10SM FEW030 FEW110 SCT220 M01/M07 A3020 RMK AO2A SLP235 T10141069

More Conditions Fewer Conditions

Pressure 30.23 in
Visibility 10.0 miles
Clouds Few 3000 ft
Few 11000 ft
Scattered Clouds 22000 ft
Windchill 34 °F
Dew Point 24 °F
Humidity 61%
Rainfall 0.00 in
Snow Depth Not available.
UV 1 out of 12
Pollen .10 out of 12
Air Quality Not available.
Flu Activity Not available.
METAR KBKF 261558Z 13006KT 10SM FEW030 FEW110 SCT220 M01/M07 A3020 RMK AO2A SLP235 T10141069

More Conditions Fewer Conditions

10-Day Weather Forecast

Almanac

Astronomy

Nov. 26, 2014 Rise Set
Actual Time
Civil Twilight
Nautical Twilight
Astronomical Twilight
Moon
Length of Visible Light
Length of Day
Tomorrow will be .
, % of the Moon is Illuminated

Today's Extremes

State Highs State Lows

Community

WunderPhotos

Upload Photos

1,773,793 photos uploaded!

WunderBlogs® & News

Nearby

Air Quality

  Air Quality AQ Index Pollutant
Not available.

Snow Depth

Station Depth Elevation

Earthquake Activity

City Distance Mag. Time & Date
Minimum magnitude displayed is 2.5.

Coastal Water Temperatures

Place Temperature

Nearby Weather Stations